sensor_id;sensor_type;location;lat;lon;timestamp;pressure;altitude;pressure_sealevel;temperature;humidity
22830;BME280;11581;51.250;6.778;2023-07-20T00:01:47;100946.31;;;20.66;55.77
22830;BME280;11581;51.250;6.778;2023-07-20T00:04:14;100949.44;;;20.63;55.26
22830;BME280;11581;51.250;6.778;2023-07-20T00:06:40;100947.97;;;20.60;55.64
22830;BME280;11581;51.250;6.778;2023-07-20T00:09:07;100943.81;;;20.58;55.55
22830;BME280;11581;51.250;6.778;2023-07-20T00:11:36;100938.59;;;20.56;56.50
22830;BME280;11581;51.250;6.778;2023-07-20T00:14:03;100942.56;;;20.54;55.98
22830;BME280;11581;51.250;6.778;2023-07-20T00:16:30;100886.25;;;20.17;55.95
22830;BME280;11581;51.250;6.778;2023-07-20T00:18:59;100944.63;;;20.52;56.95
22830;BME280;11581;51.250;6.778;2023-07-20T00:21:25;100938.41;;;20.51;56.50
22830;BME280;11581;51.250;6.778;2023-07-20T00:23:52;100946.31;;;20.53;56.46
22830;BME280;11581;51.250;6.778;2023-07-20T00:26:18;100942.56;;;20.54;56.64
22830;BME280;11581;51.250;6.778;2023-07-20T00:28:45;100938.81;;;20.55;56.62
22830;BME280;11581;51.250;6.778;2023-07-20T00:31:12;100943.16;;;20.56;56.53
22830;BME280;11581;51.250;6.778;2023-07-20T00:33:38;100934.22;;;20.55;56.55
22830;BME280;11581;51.250;6.778;2023-07-20T00:36:06;100935.88;;;20.56;56.93
22830;BME280;11581;51.250;6.778;2023-07-20T00:38:33;100926.91;;;20.56;56.49
22830;BME280;11581;51.250;6.778;2023-07-20T00:40:59;100922.53;;;20.55;56.48
22830;BME280;11581;51.250;6.778;2023-07-20T00:43:26;100921.94;;;20.53;56.39
22830;BME280;11581;51.250;6.778;2023-07-20T00:45:53;100929.22;;;20.52;56.24
22830;BME280;11581;51.250;6.778;2023-07-20T00:48:19;100934.22;;;20.49;56.07
22830;BME280;11581;51.250;6.778;2023-07-20T00:50:46;100923.34;;;20.36;56.47
22830;BME280;11581;51.250;6.778;2023-07-20T00:53:15;100931.31;;;20.44;57.14
22830;BME280;11581;51.250;6.778;2023-07-20T00:55:42;100943.38;;;20.41;56.95
22830;BME280;11581;51.250;6.778;2023-07-20T00:58:09;100943.38;;;20.41;57.25
22830;BME280;11581;51.250;6.778;2023-07-20T01:00:36;100942.53;;;20.41;57.68
22830;BME280;11581;51.250;6.778;2023-07-20T01:03:03;100938.34;;;20.38;57.94
22830;BME280;11581;51.250;6.778;2023-07-20T01:05:37;100933.38;;;20.35;59.54
22830;BME280;11581;51.250;6.778;2023-07-20T01:08:11;100945.88;;;20.43;59.03
22830;BME280;11581;51.250;6.778;2023-07-20T01:10:44;100947.75;;;20.42;59.08
22830;BME280;11581;51.250;6.778;2023-07-20T01:13:14;100944.00;;;20.43;58.62
22830;BME280;11581;51.250;6.778;2023-07-20T01:15:40;100937.53;;;20.38;57.88
22830;BME280;11581;51.250;6.778;2023-07-20T01:18:07;100939.00;;;20.40;58.34
22830;BME280;11581;51.250;6.778;2023-07-20T01:20:34;100939.22;;;20.45;58.15
22830;BME280;11581;51.250;6.778;2023-07-20T01:23:22;100942.53;;;20.47;59.16
22830;BME280;11581;51.250;6.778;2023-07-20T01:26:14;100929.19;;;20.46;59.07
22830;BME280;11581;51.250;6.778;2023-07-20T01:29:11;100929.19;;;20.46;58.84
22830;BME280;11581;51.250;6.778;2023-07-20T01:31:44;100918.16;;;20.41;58.31
22830;BME280;11581;51.250;6.778;2023-07-20T01:34:12;100936.50;;;20.52;57.88
22830;BME280;11581;51.250;6.778;2023-07-20T01:36:44;100932.13;;;20.51;57.72
22830;BME280;11581;51.250;6.778;2023-07-20T01:39:11;100941.09;;;20.51;57.87
22830;BME280;11581;51.250;6.778;2023-07-20T01:41:38;100934.22;;;20.49;57.89
22830;BME280;11581;51.250;6.778;2023-07-20T01:44:05;100929.19;;;20.46;57.66
22830;BME280;11581;51.250;6.778;2023-07-20T01:46:32;100925.88;;;20.44;57.63
22830;BME280;11581;51.250;6.778;2023-07-20T01:49:00;100899.81;;;20.23;58.13
22830;BME280;11581;51.250;6.778;2023-07-20T01:51:26;100934.19;;;20.36;57.74
22830;BME280;11581;51.250;6.778;2023-07-20T01:53:53;100932.94;;;20.32;58.15
22830;BME280;11581;51.250;6.778;2023-07-20T01:56:20;100926.28;;;20.28;58.38
22830;BME280;11581;51.250;6.778;2023-07-20T01:58:46;100929.41;;;20.25;58.42
22830;BME280;11581;51.250;6.778;2023-07-20T02:01:13;100925.00;;;20.24;58.67
22830;BME280;11581;51.250;6.778;2023-07-20T02:03:39;100921.88;;;20.20;58.59
22830;BME280;11581;51.250;6.778;2023-07-20T02:06:07;100924.16;;;20.17;59.29
22830;BME280;11581;51.250;6.778;2023-07-20T02:08:34;100917.28;;;20.14;58.95
22830;BME280;11581;51.250;6.778;2023-07-20T02:11:01;100919.53;;;20.11;58.81
22830;BME280;11581;51.250;6.778;2023-07-20T02:13:27;100919.97;;;20.08;58.94
22830;BME280;11581;51.250;6.778;2023-07-20T02:15:54;100925.16;;;20.03;59.18
22830;BME280;11581;51.250;6.778;2023-07-20T02:18:21;100919.50;;;19.98;59.04
22830;BME280;11581;51.250;6.778;2023-07-20T02:20:47;100922.84;;;19.93;59.28
22830;BME280;11581;51.250;6.778;2023-07-20T02:23:15;100924.47;;;19.87;60.07
22830;BME280;11581;51.250;6.778;2023-07-20T02:25:42;100917.78;;;19.83;59.57
22830;BME280;11581;51.250;6.778;2023-07-20T02:28:12;100898.56;;;19.65;60.60
22830;BME280;11581;51.250;6.778;2023-07-20T02:30:39;100926.94;;;19.76;60.16
22830;BME280;11581;51.250;6.778;2023-07-20T02:33:06;100922.75;;;19.73;60.12
22830;BME280;11581;51.250;6.778;2023-07-20T02:35:33;100930.22;;;19.71;60.24
22830;BME280;11581;51.250;6.778;2023-07-20T02:38:00;100925.22;;;19.68;60.30
22830;BME280;11581;51.250;6.778;2023-07-20T02:40:28;100861.75;;;19.24;60.90
22830;BME280;11581;51.250;6.778;2023-07-20T02:42:55;100930.44;;;19.63;60.63
22830;BME280;11581;51.250;6.778;2023-07-20T02:45:21;100932.47;;;19.61;60.87
22830;BME280;11581;51.250;6.778;2023-07-20T02:47:48;100928.13;;;19.60;60.95
22830;BME280;11581;51.250;6.778;2023-07-20T02:50:14;100918.50;;;19.51;61.00
22830;BME280;11581;51.250;6.778;2023-07-20T02:52:41;100932.66;;;19.53;60.89
22830;BME280;11581;51.250;6.778;2023-07-20T02:55:08;100927.66;;;19.50;61.00
22830;BME280;11581;51.250;6.778;2023-07-20T02:57:36;100932.63;;;19.47;61.64
22830;BME280;11581;51.250;6.778;2023-07-20T03:00:03;100927.59;;;19.44;61.23
22830;BME280;11581;51.250;6.778;2023-07-20T03:02:31;100934.25;;;19.41;61.62
22830;BME280;11581;51.250;6.778;2023-07-20T03:04:58;100927.59;;;19.37;61.29
22830;BME280;11581;51.250;6.778;2023-07-20T03:07:27;100937.97;;;19.34;61.79
22830;BME280;11581;51.250;6.778;2023-07-20T03:09:54;100932.13;;;19.30;61.71
22830;BME280;11581;51.250;6.778;2023-07-20T03:12:21;100937.94;;;19.27;61.74
22830;BME280;11581;51.250;6.778;2023-07-20T03:14:51;100936.63;;;19.23;62.64
22830;BME280;11581;51.250;6.778;2023-07-20T03:17:17;100946.16;;;19.19;62.04
22830;BME280;11581;51.250;6.778;2023-07-20T03:19:45;100947.41;;;19.17;62.28
22830;BME280;11581;51.250;6.778;2023-07-20T03:22:12;100925.25;;;19.00;62.40
22830;BME280;11581;51.250;6.778;2023-07-20T03:24:39;100946.94;;;19.13;62.86
22830;BME280;11581;51.250;6.778;2023-07-20T03:27:06;100942.59;;;19.12;63.03
22830;BME280;11581;51.250;6.778;2023-07-20T03:29:32;100933.81;;;19.04;62.68
22830;BME280;11581;51.250;6.778;2023-07-20T03:32:00;100947.16;;;19.12;63.45
22830;BME280;11581;51.250;6.778;2023-07-20T03:34:28;100942.59;;;19.12;63.33
22830;BME280;11581;51.250;6.778;2023-07-20T03:36:54;100945.94;;;19.14;63.39
22830;BME280;11581;51.250;6.778;2023-07-20T03:39:22;100951.34;;;19.14;63.42
22830;BME280;11581;51.250;6.778;2023-07-20T03:41:48;100958.03;;;19.18;63.43
22830;BME280;11581;51.250;6.778;2023-07-20T03:44:15;100954.91;;;19.21;63.78
22830;BME280;11581;51.250;6.778;2023-07-20T03:46:43;100959.09;;;19.24;63.54
22830;BME280;11581;51.250;6.778;2023-07-20T03:49:11;100959.28;;;19.22;63.96
22830;BME280;11581;51.250;6.778;2023-07-20T03:51:38;100966.25;;;19.31;63.56
22830;BME280;11581;51.250;6.778;2023-07-20T03:54:04;100960.44;;;19.34;63.63
22830;BME280;11581;51.250;6.778;2023-07-20T03:56:31;100965.06;;;19.40;63.38
22830;BME280;11581;51.250;6.778;2023-07-20T03:59:00;100968.19;;;19.44;63.64
22830;BME280;11581;51.250;6.778;2023-07-20T04:01:27;100969.47;;;19.48;63.53
22830;BME280;11581;51.250;6.778;2023-07-20T04:03:54;100967.19;;;19.51;63.51
22830;BME280;11581;51.250;6.778;2023-07-20T04:06:22;100980.97;;;19.56;63.60
22830;BME280;11581;51.250;6.778;2023-07-20T04:08:49;100965.13;;;19.53;63.19
22830;BME280;11581;51.250;6.778;2023-07-20T04:11:16;100966.84;;;19.61;63.14
22830;BME280;11581;51.250;6.778;2023-07-20T04:13:42;100919.22;;;19.32;63.23
22830;BME280;11581;51.250;6.778;2023-07-20T04:16:09;100946.41;;;19.58;63.16
22830;BME280;11581;51.250;6.778;2023-07-20T04:18:35;100977.53;;;19.75;62.98
22830;BME280;11581;51.250;6.778;2023-07-20T04:21:02;100977.13;;;19.78;62.73
22830;BME280;11581;51.250;6.778;2023-07-20T04:23:30;100968.56;;;19.81;63.44
22830;BME280;11581;51.250;6.778;2023-07-20T04:25:57;100971.72;;;19.85;62.98
22830;BME280;11581;51.250;6.778;2023-07-20T04:28:23;100975.88;;;19.87;63.12
22830;BME280;11581;51.250;6.778;2023-07-20T04:30:50;100974.47;;;19.92;62.83
22830;BME280;11581;51.250;6.778;2023-07-20T04:33:17;100975.72;;;19.96;62.71
22830;BME280;11581;51.250;6.778;2023-07-20T04:35:50;100910.63;;;19.56;63.21
22830;BME280;11581;51.250;6.778;2023-07-20T04:38:20;100973.63;;;19.98;62.75
22830;BME280;11581;51.250;6.778;2023-07-20T04:40:54;100939.84;;;19.80;62.92
22830;BME280;11581;51.250;6.778;2023-07-20T04:43:21;100990.13;;;20.09;62.81
22830;BME280;11581;51.250;6.778;2023-07-20T04:45:48;100990.59;;;20.13;62.70
22830;BME280;11581;51.250;6.778;2023-07-20T04:48:16;100993.75;;;20.16;62.70
22830;BME280;11581;51.250;6.778;2023-07-20T04:50:48;100995.84;;;20.21;62.69
22830;BME280;11581;51.250;6.778;2023-07-20T04:53:15;100998.97;;;20.24;63.08
22830;BME280;11581;51.250;6.778;2023-07-20T04:55:47;101000.00;;;20.30;63.50
22830;BME280;11581;51.250;6.778;2023-07-20T04:58:17;101001.69;;;20.37;63.10
22830;BME280;11581;51.250;6.778;2023-07-20T05:00:44;100999.03;;;20.44;62.42
22830;BME280;11581;51.250;6.778;2023-07-20T05:03:11;100992.16;;;20.48;62.32
22830;BME280;11581;51.250;6.778;2023-07-20T05:05:38;101002.16;;;20.54;62.38
22830;BME280;11581;51.250;6.778;2023-07-20T05:08:05;100999.66;;;20.59;62.04
22830;BME280;11581;51.250;6.778;2023-07-20T05:10:31;101003.00;;;20.61;62.21
22830;BME280;11581;51.250;6.778;2023-07-20T05:12:58;100997.19;;;20.64;62.26
22830;BME280;11581;51.250;6.778;2023-07-20T05:15:26;100998.03;;;20.64;62.18
22830;BME280;11581;51.250;6.778;2023-07-20T05:17:54;101002.38;;;20.72;61.73
22830;BME280;11581;51.250;6.778;2023-07-20T05:20:22;100994.25;;;20.72;61.71
22830;BME280;11581;51.250;6.778;2023-07-20T05:22:48;100999.69;;;20.78;61.77
22830;BME280;11581;51.250;6.778;2023-07-20T05:25:15;101005.53;;;20.82;61.38
22830;BME280;11581;51.250;6.778;2023-07-20T05:27:44;100985.72;;;20.75;61.47
22830;BME280;11581;51.250;6.778;2023-07-20T05:30:11;101003.03;;;20.87;61.29
22830;BME280;11581;51.250;6.778;2023-07-20T05:32:39;101004.28;;;20.91;61.70
22830;BME280;11581;51.250;6.778;2023-07-20T05:35:07;101010.78;;;20.96;61.65
22830;BME280;11581;51.250;6.778;2023-07-20T05:37:36;101003.50;;;21.03;61.59
22830;BME280;11581;51.250;6.778;2023-07-20T05:40:04;101010.34;;;21.12;61.97
22830;BME280;11581;51.250;6.778;2023-07-20T05:42:31;101003.66;;;21.21;61.73
22830;BME280;11581;51.250;6.778;2023-07-20T05:44:58;100952.19;;;20.95;61.25
22830;BME280;11581;51.250;6.778;2023-07-20T05:47:24;101011.97;;;21.46;61.08
22830;BME280;11581;51.250;6.778;2023-07-20T05:49:52;101011.34;;;21.57;60.59
22830;BME280;11581;51.250;6.778;2023-07-20T05:52:19;101002.75;;;21.66;60.10
22830;BME280;11581;51.250;6.778;2023-07-20T05:54:45;101007.13;;;21.74;59.99
22830;BME280;11581;51.250;6.778;2023-07-20T05:57:12;101018.81;;;21.81;59.85
22830;BME280;11581;51.250;6.778;2023-07-20T05:59:39;101018.81;;;21.87;59.92
22830;BME280;11581;51.250;6.778;2023-07-20T06:02:09;101018.34;;;21.97;59.62
22830;BME280;11581;51.250;6.778;2023-07-20T06:04:36;101017.06;;;22.06;59.54
22830;BME280;11581;51.250;6.778;2023-07-20T06:07:04;101038.09;;;22.17;59.23
22830;BME280;11581;51.250;6.778;2023-07-20T06:09:31;101012.34;;;22.26;58.78
22830;BME280;11581;51.250;6.778;2023-07-20T06:11:57;101018.97;;;22.43;58.29
22830;BME280;11581;51.250;6.778;2023-07-20T06:14:24;101021.00;;;22.54;57.82
22830;BME280;11581;51.250;6.778;2023-07-20T06:16:53;101023.84;;;22.66;57.76
22830;BME280;11581;51.250;6.778;2023-07-20T06:19:20;101023.97;;;22.77;57.53
22830;BME280;11581;51.250;6.778;2023-07-20T06:21:47;101030.97;;;22.91;57.10
22830;BME280;11581;51.250;6.778;2023-07-20T06:24:16;101029.84;;;23.05;56.71
22830;BME280;11581;51.250;6.778;2023-07-20T06:26:42;101032.63;;;23.23;56.64
22830;BME280;11581;51.250;6.778;2023-07-20T06:29:10;101040.41;;;23.44;56.75
22830;BME280;11581;51.250;6.778;2023-07-20T06:31:37;101037.63;;;23.69;56.58
22830;BME280;11581;51.250;6.778;2023-07-20T06:34:03;100871.63;;;23.08;56.80
22830;BME280;11581;51.250;6.778;2023-07-20T06:36:30;101037.63;;;24.53;56.21
22830;BME280;11581;51.250;6.778;2023-07-20T06:38:57;101036.28;;;25.03;55.11
22830;BME280;11581;51.250;6.778;2023-07-20T06:41:25;101039.19;;;25.54;52.44
22830;BME280;11581;51.250;6.778;2023-07-20T06:43:51;100898.91;;;25.09;50.62
22830;BME280;11581;51.250;6.778;2023-07-20T06:46:23;101039.25;;;26.17;48.85
22830;BME280;11581;51.250;6.778;2023-07-20T06:48:50;101039.09;;;26.23;47.06
22830;BME280;11581;51.250;6.778;2023-07-20T06:53:42;101035.94;;;26.03;45.99
22830;BME280;11581;51.250;6.778;2023-07-20T06:56:09;101029.31;;;25.87;46.94
22830;BME280;11581;51.250;6.778;2023-07-20T06:58:38;101048.31;;;25.82;48.29
22830;BME280;11581;51.250;6.778;2023-07-20T07:01:05;101040.81;;;26.01;50.06
22830;BME280;11581;51.250;6.778;2023-07-20T07:03:32;101048.78;;;26.42;49.68
22830;BME280;11581;51.250;6.778;2023-07-20T07:05:58;101041.22;;;26.89;48.29
22830;BME280;11581;51.250;6.778;2023-07-20T07:08:25;101045.31;;;27.36;46.98
22830;BME280;11581;51.250;6.778;2023-07-20T07:10:52;101048.22;;;27.84;46.15
22830;BME280;11581;51.250;6.778;2023-07-20T07:13:19;101049.25;;;28.43;46.19
22830;BME280;11581;51.250;6.778;2023-07-20T07:15:47;101045.63;;;29.12;44.22
22830;BME280;11581;51.250;6.778;2023-07-20T07:18:14;101059.13;;;29.91;44.43
22830;BME280;11581;51.250;6.778;2023-07-20T07:20:40;101053.69;;;30.78;42.56
22830;BME280;11581;51.250;6.778;2023-07-20T07:23:07;101044.59;;;31.68;41.63
22830;BME280;11581;51.250;6.778;2023-07-20T07:25:34;101049.81;;;32.58;39.51
22830;BME280;11581;51.250;6.778;2023-07-20T07:28:00;101051.69;;;33.45;37.53
22830;BME280;11581;51.250;6.778;2023-07-20T07:30:27;101054.06;;;34.27;36.24
22830;BME280;11581;51.250;6.778;2023-07-20T07:32:55;101056.75;;;35.11;34.29
22830;BME280;11581;51.250;6.778;2023-07-20T07:35:22;101056.56;;;35.85;33.33
22830;BME280;11581;51.250;6.778;2023-07-20T07:37:49;101058.81;;;36.38;31.26
22830;BME280;11581;51.250;6.778;2023-07-20T07:40:16;101055.94;;;36.56;29.00
22830;BME280;11581;51.250;6.778;2023-07-20T07:42:43;101060.66;;;36.42;28.85
22830;BME280;11581;51.250;6.778;2023-07-20T07:45:10;101060.47;;;36.12;28.55
22830;BME280;11581;51.250;6.778;2023-07-20T07:47:37;101061.50;;;35.88;29.64
22830;BME280;11581;51.250;6.778;2023-07-20T07:50:06;101061.63;;;35.83;28.68
22830;BME280;11581;51.250;6.778;2023-07-20T07:52:33;101033.66;;;35.80;29.80
22830;BME280;11581;51.250;6.778;2023-07-20T07:54:59;101061.72;;;36.33;29.68
22830;BME280;11581;51.250;6.778;2023-07-20T07:57:26;101064.13;;;36.75;29.44
22830;BME280;11581;51.250;6.778;2023-07-20T07:59:53;101064.06;;;37.24;28.71
22830;BME280;11581;51.250;6.778;2023-07-20T08:02:20;101063.75;;;37.78;28.39
22830;BME280;11581;51.250;6.778;2023-07-20T08:04:46;101069.00;;;38.27;27.10
22830;BME280;11581;51.250;6.778;2023-07-20T08:07:14;101085.00;;;38.61;25.50
22830;BME280;11581;51.250;6.778;2023-07-20T08:09:41;101077.81;;;38.68;25.06
22830;BME280;11581;51.250;6.778;2023-07-20T08:12:08;101079.25;;;38.57;24.48
22830;BME280;11581;51.250;6.778;2023-07-20T08:14:35;101079.84;;;38.37;24.88
22830;BME280;11581;51.250;6.778;2023-07-20T08:17:01;101091.03;;;38.07;24.50
22830;BME280;11581;51.250;6.778;2023-07-20T08:19:28;101082.88;;;37.71;24.30
22830;BME280;11581;51.250;6.778;2023-07-20T08:21:55;101086.72;;;37.39;25.16
22830;BME280;11581;51.250;6.778;2023-07-20T08:24:23;101041.28;;;37.00;25.37
22830;BME280;11581;51.250;6.778;2023-07-20T08:26:49;101089.44;;;37.31;25.88
22830;BME280;11581;51.250;6.778;2023-07-20T08:29:16;101080.09;;;37.49;25.31
22830;BME280;11581;51.250;6.778;2023-07-20T08:31:42;101082.41;;;37.77;25.45
22830;BME280;11581;51.250;6.778;2023-07-20T08:34:09;101080.44;;;38.09;25.28
22830;BME280;11581;51.250;6.778;2023-07-20T08:36:36;101080.69;;;38.46;24.67
22830;BME280;11581;51.250;6.778;2023-07-20T08:39:03;101060.59;;;38.75;24.03
22830;BME280;11581;51.250;6.778;2023-07-20T08:41:31;101087.34;;;39.35;23.66
22830;BME280;11581;51.250;6.778;2023-07-20T08:43:58;101072.94;;;39.79;23.49
22830;BME280;11581;51.250;6.778;2023-07-20T08:46:26;101088.88;;;40.25;22.34
22830;BME280;11581;51.250;6.778;2023-07-20T08:48:54;101083.84;;;40.68;22.17
22830;BME280;11581;51.250;6.778;2023-07-20T08:51:23;101083.53;;;41.11;21.59
22830;BME280;11581;51.250;6.778;2023-07-20T08:53:52;101077.41;;;41.50;21.54
22830;BME280;11581;51.250;6.778;2023-07-20T08:56:19;101083.09;;;41.98;21.17
22830;BME280;11581;51.250;6.778;2023-07-20T08:58:48;101087.22;;;42.37;19.65
22830;BME280;11581;51.250;6.778;2023-07-20T09:01:15;101092.28;;;42.83;20.00
22830;BME280;11581;51.250;6.778;2023-07-20T09:03:45;101093.44;;;43.21;19.66
22830;BME280;11581;51.250;6.778;2023-07-20T09:06:11;101082.97;;;43.61;19.37
22830;BME280;11581;51.250;6.778;2023-07-20T09:08:38;101080.38;;;44.00;18.96
22830;BME280;11581;51.250;6.778;2023-07-20T09:11:05;101059.69;;;44.23;18.33
22830;BME280;11581;51.250;6.778;2023-07-20T09:13:32;101075.13;;;44.64;18.11
22830;BME280;11581;51.250;6.778;2023-07-20T09:16:00;101077.69;;;44.88;17.44
22830;BME280;11581;51.250;6.778;2023-07-20T09:18:29;101076.59;;;45.11;17.33
22830;BME280;11581;51.250;6.778;2023-07-20T09:21:01;101085.59;;;45.20;16.46
22830;BME280;11581;51.250;6.778;2023-07-20T09:23:32;101070.38;;;45.02;16.19
22830;BME280;11581;51.250;6.778;2023-07-20T09:25:59;101077.34;;;44.74;16.67
22830;BME280;11581;51.250;6.778;2023-07-20T09:28:26;101077.72;;;44.22;16.81
22830;BME280;11581;51.250;6.778;2023-07-20T09:30:54;101084.66;;;43.50;16.91
22830;BME280;11581;51.250;6.778;2023-07-20T09:33:24;101086.25;;;42.69;17.49
22830;BME280;11581;51.250;6.778;2023-07-20T09:35:50;101074.94;;;41.93;17.89
22830;BME280;11581;51.250;6.778;2023-07-20T09:38:17;101076.03;;;41.35;18.75
22830;BME280;11581;51.250;6.778;2023-07-20T09:40:44;101074.84;;;41.04;18.93
22830;BME280;11581;51.250;6.778;2023-07-20T09:43:10;101070.63;;;40.98;19.17
22830;BME280;11581;51.250;6.778;2023-07-20T09:45:39;101065.25;;;41.13;18.34
22830;BME280;11581;51.250;6.778;2023-07-20T09:48:07;101043.28;;;41.36;18.94
22830;BME280;11581;51.250;6.778;2023-07-20T09:50:39;101063.44;;;41.86;18.63
22830;BME280;11581;51.250;6.778;2023-07-20T09:53:06;101059.06;;;42.21;19.14
22830;BME280;11581;51.250;6.778;2023-07-20T09:55:34;101060.47;;;42.51;18.52
22830;BME280;11581;51.250;6.778;2023-07-20T09:58:02;101064.84;;;42.76;18.20
22830;BME280;11581;51.250;6.778;2023-07-20T10:00:29;101064.78;;;43.00;17.71
22830;BME280;11581;51.250;6.778;2023-07-20T10:02:56;101059.53;;;43.26;17.21
22830;BME280;11581;51.250;6.778;2023-07-20T10:05:24;101069.00;;;43.49;17.06
22830;BME280;11581;51.250;6.778;2023-07-20T10:07:56;101071.09;;;43.68;16.56
22830;BME280;11581;51.250;6.778;2023-07-20T10:10:23;101070.41;;;43.87;16.66
22830;BME280;11581;51.250;6.778;2023-07-20T10:12:50;101065.59;;;44.03;16.11
22830;BME280;11581;51.250;6.778;2023-07-20T10:15:20;101060.03;;;44.22;16.17
22830;BME280;11581;51.250;6.778;2023-07-20T10:17:56;101063.75;;;44.41;15.88
22830;BME280;11581;51.250;6.778;2023-07-20T10:20:25;101053.66;;;44.56;15.89
22830;BME280;11581;51.250;6.778;2023-07-20T10:22:53;101046.81;;;44.57;15.94
22830;BME280;11581;51.250;6.778;2023-07-20T10:25:22;101053.75;;;44.44;15.32
22830;BME280;11581;51.250;6.778;2023-07-20T10:27:49;101060.69;;;44.31;15.39
22830;BME280;11581;51.250;6.778;2023-07-20T10:30:17;101052.78;;;44.21;15.24
22830;BME280;11581;51.250;6.778;2023-07-20T10:32:45;101049.38;;;44.12;15.39
22830;BME280;11581;51.250;6.778;2023-07-20T10:35:12;101043.69;;;44.08;15.54
22830;BME280;11581;51.250;6.778;2023-07-20T10:37:50;101047.00;;;44.14;15.75
22830;BME280;11581;51.250;6.778;2023-07-20T10:40:26;101046.19;;;44.13;15.79
22830;BME280;11581;51.250;6.778;2023-07-20T10:42:57;101049.94;;;44.02;15.19
22830;BME280;11581;51.250;6.778;2023-07-20T10:45:33;101052.63;;;43.67;15.60
22830;BME280;11581;51.250;6.778;2023-07-20T10:48:03;101046.41;;;43.30;15.46
22830;BME280;11581;51.250;6.778;2023-07-20T10:50:30;100973.75;;;42.58;16.14
22830;BME280;11581;51.250;6.778;2023-07-20T10:53:10;101036.91;;;42.80;16.84
22830;BME280;11581;51.250;6.778;2023-07-20T10:55:39;101039.44;;;42.85;16.35
22830;BME280;11581;51.250;6.778;2023-07-20T10:58:10;101010.81;;;42.91;15.96
22830;BME280;11581;51.250;6.778;2023-07-20T11:00:38;101023.03;;;43.26;15.97
22830;BME280;11581;51.250;6.778;2023-07-20T11:03:05;101033.72;;;43.48;15.49
22830;BME280;11581;51.250;6.778;2023-07-20T11:05:33;101027.97;;;43.60;14.89
22830;BME280;11581;51.250;6.778;2023-07-20T11:07:59;101018.84;;;43.63;14.87
22830;BME280;11581;51.250;6.778;2023-07-20T11:10:26;101016.50;;;43.50;14.96
22830;BME280;11581;51.250;6.778;2023-07-20T11:13:19;101006.09;;;43.23;16.00
22830;BME280;11581;51.250;6.778;2023-07-20T11:15:47;101024.59;;;42.96;15.36
22830;BME280;11581;51.250;6.778;2023-07-20T11:18:14;101020.94;;;42.56;15.34
22830;BME280;11581;51.250;6.778;2023-07-20T11:20:41;101007.47;;;42.10;15.88
22830;BME280;11581;51.250;6.778;2023-07-20T11:23:09;101018.19;;;41.72;16.20
22830;BME280;11581;51.250;6.778;2023-07-20T11:25:39;100891.59;;;40.74;16.10
22830;BME280;11581;51.250;6.778;2023-07-20T11:28:09;100995.44;;;41.17;16.44
22830;BME280;11581;51.250;6.778;2023-07-20T11:30:38;101004.44;;;41.02;16.40
22830;BME280;11581;51.250;6.778;2023-07-20T11:33:05;100898.97;;;40.17;16.74
22830;BME280;11581;51.250;6.778;2023-07-20T11:35:35;101007.22;;;40.49;16.66
22830;BME280;11581;51.250;6.778;2023-07-20T11:38:03;100994.06;;;40.20;17.49
22830;BME280;11581;51.250;6.778;2023-07-20T11:40:29;100992.41;;;39.99;17.74
22830;BME280;11581;51.250;6.778;2023-07-20T11:42:56;100996.75;;;39.88;17.80
22830;BME280;11581;51.250;6.778;2023-07-20T11:45:23;100994.41;;;39.89;17.94
22830;BME280;11581;51.250;6.778;2023-07-20T11:47:51;101005.22;;;40.00;17.58
22830;BME280;11581;51.250;6.778;2023-07-20T11:50:17;100994.63;;;40.14;17.63
22830;BME280;11581;51.250;6.778;2023-07-20T11:52:44;100988.47;;;40.29;17.30
22830;BME280;11581;51.250;6.778;2023-07-20T11:55:11;100982.25;;;40.44;17.65
22830;BME280;11581;51.250;6.778;2023-07-20T11:57:38;100964.28;;;40.53;17.53
22830;BME280;11581;51.250;6.778;2023-07-20T12:00:06;100974.22;;;40.63;17.18
22830;BME280;11581;51.250;6.778;2023-07-20T12:02:37;100985.47;;;40.54;16.81
22830;BME280;11581;51.250;6.778;2023-07-20T12:05:07;100980.09;;;40.29;16.97
22830;BME280;11581;51.250;6.778;2023-07-20T12:07:35;100988.16;;;39.92;17.00
22830;BME280;11581;51.250;6.778;2023-07-20T12:10:06;100982.94;;;39.45;17.13
22830;BME280;11581;51.250;6.778;2023-07-20T12:12:33;100969.94;;;38.86;17.37
22830;BME280;11581;51.250;6.778;2023-07-20T12:15:14;100989.91;;;38.37;17.72
22830;BME280;11581;51.250;6.778;2023-07-20T12:17:43;100987.78;;;37.86;17.94
22830;BME280;11581;51.250;6.778;2023-07-20T12:20:12;100981.31;;;37.29;18.27
22830;BME280;11581;51.250;6.778;2023-07-20T12:22:39;100946.03;;;36.64;19.34
22830;BME280;11581;51.250;6.778;2023-07-20T12:25:06;100976.00;;;36.53;19.72
22830;BME280;11581;51.250;6.778;2023-07-20T12:27:35;100966.16;;;36.34;19.28
22830;BME280;11581;51.250;6.778;2023-07-20T12:30:04;100965.88;;;36.22;19.76
22830;BME280;11581;51.250;6.778;2023-07-20T12:32:30;100964.75;;;36.09;20.21
22830;BME280;11581;51.250;6.778;2023-07-20T12:34:57;100964.91;;;35.90;20.40
22830;BME280;11581;51.250;6.778;2023-07-20T12:37:27;100969.94;;;35.75;20.23
22830;BME280;11581;51.250;6.778;2023-07-20T12:39:53;100971.06;;;35.60;20.32
22830;BME280;11581;51.250;6.778;2023-07-20T12:42:20;100966.63;;;35.46;20.43
22830;BME280;11581;51.250;6.778;2023-07-20T12:44:49;100898.03;;;34.92;20.47
22830;BME280;11581;51.250;6.778;2023-07-20T12:47:16;100976.50;;;35.20;20.58
22830;BME280;11581;51.250;6.778;2023-07-20T12:49:43;100967.63;;;35.04;20.65
22830;BME280;11581;51.250;6.778;2023-07-20T12:52:12;100956.91;;;34.84;21.00
22830;BME280;11581;51.250;6.778;2023-07-20T12:54:40;100961.56;;;34.70;20.82
22830;BME280;11581;51.250;6.778;2023-07-20T12:57:06;100966.28;;;34.51;21.16